createdAt,value
2019-02-27T00:00:45.106Z,24.83
2019-02-27T00:03:13.736Z,24.70
2019-02-27T00:05:42.406Z,24.87
2019-02-27T00:08:10.911Z,25.23
2019-02-27T00:10:39.915Z,26.20
2019-02-27T00:13:08.470Z,25.37
2019-02-27T00:15:38.075Z,26.67
2019-02-27T00:18:07.024Z,25.67
2019-02-27T00:20:37.079Z,25.27
2019-02-27T00:23:05.746Z,25.97
2019-02-27T00:25:36.095Z,25.13
2019-02-27T00:28:04.545Z,24.10
2019-02-27T00:30:33.064Z,25.70
2019-02-27T00:33:01.552Z,23.33
2019-02-27T00:35:30.067Z,23.23
2019-02-27T00:37:58.554Z,24.40
2019-02-27T00:40:27.067Z,23.93
2019-02-27T00:42:55.563Z,25.27
2019-02-27T00:45:24.145Z,24.73
2019-02-27T00:47:53.235Z,24.20
2019-02-27T00:50:22.322Z,24.70
2019-02-27T00:52:51.624Z,24.63
2019-02-27T00:55:20.211Z,24.80
2019-02-27T00:57:48.696Z,25.70
2019-02-27T01:00:18.621Z,23.57
2019-02-27T01:02:47.179Z,25.97
2019-02-27T01:05:15.771Z,23.97
2019-02-27T01:07:44.263Z,23.37
2019-02-27T01:10:13.000Z,25.10
2019-02-27T01:12:41.511Z,24.30
2019-02-27T01:15:14.362Z,24.50
2019-02-27T01:17:43.200Z,25.17
2019-02-27T01:20:15.385Z,25.47
2019-02-27T01:22:43.873Z,25.70
2019-02-27T01:25:12.716Z,26.10
2019-02-27T01:27:41.196Z,25.03
2019-02-27T01:30:15.070Z,25.73
2019-02-27T01:32:43.555Z,24.47
2019-02-27T01:35:17.538Z,24.10
2019-02-27T01:37:43.311Z,25.13
2019-02-27T01:40:17.143Z,25.83
2019-02-27T01:42:44.161Z,24.60
2019-02-27T01:45:15.292Z,25.63
2019-02-27T01:47:43.851Z,26.30
2019-02-27T01:50:35.300Z,27.20
2019-02-27T01:53:07.058Z,26.03
2019-02-27T01:55:34.328Z,26.07
2019-02-27T01:58:02.821Z,26.27
2019-02-27T02:00:31.408Z,26.30
2019-02-27T02:02:59.889Z,25.27
2019-02-27T02:05:28.479Z,25.40
2019-02-27T02:07:57.106Z,25.30
2019-02-27T02:10:28.003Z,25.23
2019-02-27T02:12:58.993Z,24.67
2019-02-27T02:15:48.380Z,23.87
2019-02-27T02:18:36.783Z,25.23
2019-02-27T02:21:16.674Z,27.53
2019-02-27T02:24:12.862Z,25.77
2019-02-27T02:26:50.115Z,26.23
2019-02-27T02:29:33.349Z,25.37
2019-02-27T02:32:07.642Z,26.07
2019-02-27T02:35:02.415Z,26.33
2019-02-27T02:37:42.680Z,26.67
2019-02-27T02:40:22.974Z,26.20
2019-02-27T02:43:03.510Z,27.40
2019-02-27T02:45:44.064Z,26.43
2019-02-27T02:48:27.896Z,26.80
2019-02-27T02:51:15.649Z,27.37
2019-02-27T02:54:04.928Z,27.00
2019-02-27T02:56:36.499Z,27.07
2019-02-27T02:59:27.285Z,30.67
2019-02-27T03:02:04.631Z,29.90
2019-02-27T03:04:50.831Z,30.77
2019-02-27T03:07:30.527Z,31.07
2019-02-27T03:10:11.264Z,29.83
2019-02-27T03:12:48.517Z,31.50
2019-02-27T03:15:37.678Z,33.07
2019-02-27T03:18:15.036Z,29.53
2019-02-27T03:20:51.968Z,30.73
2019-02-27T03:23:34.440Z,32.70
2019-02-27T03:26:26.497Z,32.80
2019-02-27T03:29:03.741Z,34.57
2019-02-27T03:31:57.563Z,34.10
2019-02-27T03:34:50.974Z,35.27
2019-02-27T03:37:48.125Z,32.73
2019-02-27T03:40:35.404Z,33.33
2019-02-27T03:43:35.323Z,32.33
2019-02-27T03:46:09.724Z,32.93
2019-02-27T03:48:47.200Z,34.27
2019-02-27T03:51:32.879Z,31.83
2019-02-27T03:54:10.134Z,31.50
2019-02-27T03:56:44.861Z,31.37
2019-02-27T03:59:31.413Z,31.17
2019-02-27T04:02:06.194Z,32.13
2019-02-27T04:04:57.077Z,31.30
2019-02-27T04:07:37.526Z,30.93
2019-02-27T04:10:06.203Z,29.97
2019-02-27T04:12:34.717Z,31.47
2019-02-27T04:15:03.858Z,31.00
2019-02-27T04:17:31.229Z,32.30
2019-02-27T04:19:59.730Z,32.43
2019-02-27T04:22:28.240Z,31.63
2019-02-27T04:24:57.694Z,33.53
2019-02-27T04:27:26.342Z,33.03
2019-02-27T04:29:54.845Z,33.00
2019-02-27T04:32:23.360Z,32.03
2019-02-27T04:34:51.860Z,32.93
2019-02-27T04:37:21.054Z,34.80
2019-02-27T04:39:49.565Z,32.60
2019-02-27T04:42:18.077Z,32.33
2019-02-27T04:44:46.566Z,34.47
2019-02-27T04:47:15.095Z,36.43
2019-02-27T04:49:43.585Z,34.67
2019-02-27T04:52:12.102Z,34.33
2019-02-27T04:54:41.657Z,34.80
2019-02-27T04:57:10.719Z,34.50
2019-02-27T04:59:39.223Z,34.63
2019-02-27T05:02:07.743Z,35.17
2019-02-27T05:04:36.237Z,35.27
2019-02-27T05:07:04.755Z,34.60
2019-02-27T05:09:34.102Z,35.63
2019-02-27T05:12:03.153Z,36.30
2019-02-27T05:14:31.633Z,36.10
2019-02-27T05:17:00.151Z,34.00
2019-02-27T05:19:28.656Z,34.07
2019-02-27T05:21:57.177Z,33.67
2019-02-27T05:24:25.679Z,33.57
2019-02-27T05:26:54.210Z,32.53
2019-02-27T05:29:22.730Z,32.87
2019-02-27T05:31:53.148Z,33.10
2019-02-27T05:34:21.507Z,34.57
2019-02-27T05:36:50.011Z,34.07
2019-02-27T05:39:18.507Z,36.37
2019-02-27T05:41:47.040Z,35.37
2019-02-27T05:44:15.528Z,34.63
2019-02-27T05:46:44.045Z,34.13
2019-02-27T05:49:12.540Z,35.50
2019-02-27T05:51:41.057Z,38.47
2019-02-27T05:54:09.552Z,38.67
2019-02-27T05:56:38.083Z,37.47
2019-02-27T05:59:06.584Z,40.17
2019-02-27T06:01:38.009Z,38.50
2019-02-27T06:04:05.324Z,38.47
2019-02-27T06:06:33.854Z,37.63
2019-02-27T06:09:02.358Z,38.87
2019-02-27T06:11:33.045Z,41.07
2019-02-27T06:14:01.089Z,37.77
2019-02-27T06:16:29.609Z,40.17
2019-02-27T06:18:58.113Z,42.77
2019-02-27T06:21:26.635Z,39.00
2019-02-27T06:23:55.136Z,40.40
2019-02-27T06:26:23.642Z,40.17
2019-02-27T06:28:52.171Z,39.13
2019-02-27T06:31:20.678Z,40.70
2019-02-27T06:33:49.197Z,41.13
2019-02-27T06:36:17.690Z,41.03
2019-02-27T06:38:46.219Z,41.97
2019-02-27T06:41:15.649Z,42.53
2019-02-27T06:43:44.752Z,42.37
2019-02-27T06:46:13.258Z,41.90
2019-02-27T06:48:43.596Z,45.67
2019-02-27T06:51:12.006Z,45.20
2019-02-27T06:53:40.530Z,47.90
2019-02-27T06:56:09.036Z,47.70
2019-02-27T06:58:37.551Z,50.93
2019-02-27T07:01:09.288Z,55.17
2019-02-27T07:03:36.296Z,56.50
2019-02-27T07:06:04.793Z,52.47
2019-02-27T07:08:37.901Z,54.87
2019-02-27T07:11:10.774Z,53.97
2019-02-27T07:13:33.801Z,53.77
2019-02-27T07:16:02.317Z,54.30
2019-02-27T07:18:30.818Z,58.53
2019-02-27T07:20:59.342Z,64.17
2019-02-27T07:23:27.845Z,67.57
2019-02-27T07:25:56.347Z,65.67
2019-02-27T07:28:24.873Z,68.80
2019-02-27T07:30:53.378Z,67.87
2019-02-27T07:33:21.976Z,65.40
2019-02-27T07:35:50.465Z,63.50
2019-02-27T07:38:21.442Z,62.27
2019-02-27T07:40:49.203Z,63.40
2019-02-27T07:43:17.722Z,61.43
2019-02-27T07:45:46.278Z,61.33
2019-02-27T07:48:14.749Z,58.83
2019-02-27T07:50:48.318Z,58.43
2019-02-27T07:53:17.495Z,56.43
2019-02-27T07:55:43.723Z,55.87
2019-02-27T07:58:12.232Z,55.47
2019-02-27T08:00:42.791Z,53.53
2019-02-27T08:03:13.001Z,52.73
2019-02-27T08:05:41.209Z,51.77
2019-02-27T08:08:09.693Z,48.93
2019-02-27T08:10:38.280Z,50.67
2019-02-27T08:13:06.762Z,46.30
2019-02-27T08:15:35.283Z,44.60
2019-02-27T08:18:03.817Z,40.87
2019-02-27T08:20:32.495Z,41.40
2019-02-27T08:23:00.972Z,41.57
2019-02-27T08:25:29.486Z,42.03
2019-02-27T08:27:57.958Z,42.43
2019-02-27T08:30:29.844Z,45.87
2019-02-27T08:32:58.327Z,46.00
2019-02-27T08:35:26.838Z,41.47
2019-02-27T08:38:02.122Z,44.97
2019-02-27T08:40:25.613Z,43.00
2019-02-27T08:42:54.108Z,42.97
2019-02-27T08:45:26.865Z,42.47
2019-02-27T08:47:52.815Z,43.77
2019-02-27T08:50:22.355Z,44.43
2019-02-27T08:52:51.901Z,43.40
2019-02-27T08:55:22.576Z,41.80
2019-02-27T08:57:55.763Z,39.20
2019-02-27T09:00:29.826Z,41.40
2019-02-27T09:03:02.439Z,42.20
2019-02-27T09:05:28.734Z,41.10
2019-02-27T09:07:57.224Z,41.00
2019-02-27T09:10:30.417Z,43.87
2019-02-27T09:13:04.803Z,42.05
2019-02-27T09:15:27.007Z,43.63
2019-02-27T09:17:55.497Z,42.85
2019-02-27T09:20:24.012Z,45.78
2019-02-27T09:22:52.489Z,44.15
2019-02-27T09:25:23.690Z,44.83
2019-02-27T09:27:51.207Z,42.78
2019-02-27T09:30:28.899Z,43.60
2019-02-27T09:32:53.912Z,42.67
2019-02-27T09:35:22.425Z,45.73
2019-02-27T09:37:51.903Z,44.10
2019-02-27T09:40:24.734Z,45.77
2019-02-27T09:42:53.958Z,47.63
2019-02-27T09:45:25.039Z,46.17
2019-02-27T09:47:53.567Z,46.07
2019-02-27T09:50:30.777Z,47.40
2019-02-27T09:53:01.045Z,45.67
2019-02-27T09:55:29.500Z,43.77
2019-02-27T09:57:58.119Z,45.30
2019-02-27T10:00:33.304Z,43.10
2019-02-27T10:03:02.025Z,42.37
2019-02-27T10:05:30.890Z,41.00
2019-02-27T10:07:59.447Z,43.80
2019-02-27T10:10:27.962Z,42.20
2019-02-27T10:12:56.440Z,41.40
2019-02-27T10:15:25.908Z,43.10
2019-02-27T10:17:54.495Z,39.80
2019-02-27T10:20:23.075Z,40.73
2019-02-27T10:22:53.190Z,40.30
2019-02-27T10:25:22.023Z,41.40
2019-02-27T10:27:50.665Z,37.33
2019-02-27T10:30:19.313Z,40.45
2019-02-27T10:32:47.866Z,41.25
2019-02-27T10:35:16.837Z,40.87
2019-02-27T10:37:50.525Z,39.47
2019-02-27T10:40:20.777Z,40.13
2019-02-27T10:42:50.321Z,40.05
2019-02-27T10:45:19.462Z,41.03
2019-02-27T10:47:47.945Z,40.33
2019-02-27T10:50:16.684Z,37.17
2019-02-27T10:52:45.179Z,35.40
2019-02-27T10:55:19.108Z,36.87
2019-02-27T10:57:47.642Z,37.58
2019-02-27T11:00:30.148Z,36.90
2019-02-27T11:02:59.166Z,41.90
2019-02-27T11:05:30.710Z,34.35
2019-02-27T11:07:59.190Z,35.05
2019-02-27T11:10:27.759Z,34.37
2019-02-27T11:12:56.239Z,38.20
2019-02-27T11:15:24.810Z,36.77
2019-02-27T11:17:53.505Z,38.98
2019-02-27T11:20:24.507Z,37.10
2019-02-27T11:22:52.366Z,35.20
2019-02-27T11:25:29.276Z,39.50
2019-02-27T11:27:57.888Z,35.87
2019-02-27T11:30:37.722Z,36.42
2019-02-27T11:33:06.354Z,34.35
2019-02-27T11:35:34.847Z,32.28
2019-02-27T11:38:03.341Z,31.25
2019-02-27T11:40:31.862Z,32.48
2019-02-27T11:43:01.102Z,34.85
2019-02-27T11:45:29.786Z,32.98
2019-02-27T11:47:58.274Z,32.67
2019-02-27T11:50:26.790Z,31.48
2019-02-27T11:52:55.344Z,32.73
2019-02-27T11:55:24.522Z,32.42
2019-02-27T11:57:53.153Z,31.12
2019-02-27T12:00:31.359Z,28.02
2019-02-27T12:03:00.060Z,28.70
2019-02-27T12:05:33.847Z,25.92
2019-02-27T12:07:59.413Z,28.35
2019-02-27T12:10:33.886Z,28.40
2019-02-27T12:13:02.364Z,26.50
2019-02-27T12:15:31.037Z,25.97
2019-02-27T12:18:01.809Z,26.50
2019-02-27T12:20:29.735Z,26.52
2019-02-27T12:22:58.219Z,27.82
2019-02-27T12:25:29.650Z,26.05
2019-02-27T12:27:57.285Z,25.70
2019-02-27T12:30:30.280Z,32.33
2019-02-27T12:32:58.909Z,29.15
2019-02-27T12:35:29.880Z,22.32
2019-02-27T12:37:58.362Z,24.07
2019-02-27T12:40:27.056Z,26.55
2019-02-27T12:42:55.606Z,30.77
2019-02-27T12:45:30.970Z,37.42
2019-02-27T12:47:59.469Z,23.95
2019-02-27T12:50:31.029Z,22.58
2019-02-27T12:52:59.407Z,24.02
2019-02-27T12:55:28.902Z,21.33
2019-02-27T12:57:57.418Z,22.52
2019-02-27T13:00:30.474Z,22.58
2019-02-27T13:02:59.395Z,20.70
2019-02-27T13:05:28.224Z,21.15
2019-02-27T13:07:56.889Z,21.45
2019-02-27T13:10:27.184Z,20.80
2019-02-27T13:12:55.764Z,19.02
2019-02-27T13:15:25.391Z,18.55
2019-02-27T13:17:57.420Z,19.12
2019-02-27T13:20:27.285Z,17.98
2019-02-27T13:22:55.791Z,16.75
2019-02-27T13:25:24.881Z,17.62
2019-02-27T13:27:53.599Z,18.55
2019-02-27T13:30:26.690Z,17.07
2019-02-27T13:32:55.197Z,17.25
2019-02-27T13:35:24.057Z,16.12
2019-02-27T13:37:52.662Z,16.37
2019-02-27T13:40:25.499Z,16.45
2019-02-27T13:42:54.050Z,16.60
2019-02-27T13:45:27.374Z,18.10
2019-02-27T13:47:55.956Z,16.30
2019-02-27T13:50:26.839Z,15.38
2019-02-27T13:52:54.733Z,15.48
2019-02-27T13:55:24.477Z,20.40
2019-02-27T13:57:52.962Z,15.75
2019-02-27T14:00:32.516Z,16.95
2019-02-27T14:03:01.084Z,16.85
2019-02-27T14:05:29.720Z,16.00
2019-02-27T14:07:59.859Z,16.87
2019-02-27T14:10:30.577Z,15.45
2019-02-27T14:12:59.236Z,15.68
2019-02-27T14:15:28.232Z,15.35
2019-02-27T14:17:56.795Z,17.25
2019-02-27T14:20:27.015Z,16.77
2019-02-27T14:22:55.917Z,15.93
2019-02-27T14:25:33.105Z,18.20
2019-02-27T14:27:59.857Z,17.23
2019-02-27T14:30:35.539Z,18.10
2019-02-27T14:33:04.197Z,15.95
2019-02-27T14:35:36.325Z,15.45
2019-02-27T14:38:02.903Z,16.12
2019-02-27T14:40:31.376Z,15.78
2019-02-27T14:42:59.878Z,16.27
2019-02-27T14:45:28.352Z,16.02
2019-02-27T14:47:56.857Z,16.27
2019-02-27T14:50:25.681Z,16.45
2019-02-27T14:52:54.247Z,16.30
2019-02-27T14:55:23.270Z,15.98
2019-02-27T14:57:51.848Z,15.95
2019-02-27T15:00:39.990Z,14.80
2019-02-27T15:03:04.841Z,14.98
2019-02-27T15:05:33.322Z,16.32
2019-02-27T15:08:01.835Z,17.35
2019-02-27T15:10:30.371Z,16.45
2019-02-27T15:12:58.875Z,16.15
2019-02-27T15:15:33.759Z,16.80
2019-02-27T15:18:02.407Z,16.50
2019-02-27T15:20:34.618Z,17.05
2019-02-27T15:23:03.317Z,15.30
2019-02-27T15:25:31.871Z,16.93
2019-02-27T15:28:00.376Z,24.15
2019-02-27T15:30:33.428Z,26.02
2019-02-27T15:33:04.956Z,20.72
2019-02-27T15:35:32.211Z,18.52
2019-02-27T15:38:00.856Z,21.33
2019-02-27T15:40:30.352Z,17.17
2019-02-27T15:42:58.986Z,16.67
2019-02-27T15:45:28.311Z,16.67
2019-02-27T15:47:57.008Z,17.23
2019-02-27T15:50:27.976Z,16.07
2019-02-27T15:52:56.482Z,17.42
2019-02-27T15:55:24.964Z,18.70
2019-02-27T15:57:54.134Z,19.92
2019-02-27T16:00:31.151Z,21.15
2019-02-27T16:03:00.114Z,21.00
2019-02-27T16:05:31.261Z,19.07
2019-02-27T16:07:58.827Z,19.60
2019-02-27T16:10:28.346Z,19.03
2019-02-27T16:12:59.863Z,18.50
2019-02-27T16:15:27.199Z,20.27
2019-02-27T16:17:55.718Z,21.13
2019-02-27T16:20:26.276Z,27.70
2019-02-27T16:22:54.843Z,35.03
2019-02-27T16:25:24.469Z,30.55
2019-02-27T16:27:53.047Z,27.50
2019-02-27T16:30:32.979Z,23.53
2019-02-27T16:33:01.606Z,20.13
2019-02-27T16:35:30.121Z,18.67
2019-02-27T16:37:58.759Z,18.67
2019-02-27T16:40:28.454Z,19.20
2019-02-27T16:42:56.946Z,18.70
2019-02-27T16:45:31.839Z,17.37
2019-02-27T16:47:58.846Z,16.60
2019-02-27T16:50:28.261Z,16.07
2019-02-27T16:52:56.912Z,16.67
2019-02-27T16:55:26.667Z,17.23
2019-02-27T16:57:57.450Z,18.03
2019-02-27T17:00:30.401Z,16.13
2019-02-27T17:02:58.978Z,15.70
2019-02-27T17:05:27.791Z,15.77
2019-02-27T17:08:00.330Z,16.60
2019-02-27T17:10:29.678Z,16.80
2019-02-27T17:12:58.317Z,16.03
2019-02-27T17:15:26.787Z,16.47
2019-02-27T17:17:55.297Z,15.57
2019-02-27T17:20:25.407Z,16.87
2019-02-27T17:22:53.903Z,16.53
2019-02-27T17:25:22.386Z,17.20
2019-02-27T17:27:52.709Z,16.23
2019-02-27T17:30:24.394Z,16.10
2019-02-27T17:32:52.978Z,15.53
2019-02-27T17:35:23.596Z,16.23
2019-02-27T17:37:51.754Z,15.17
2019-02-27T17:40:20.288Z,15.90
2019-02-27T17:42:53.124Z,15.83
2019-02-27T17:45:28.334Z,16.50
2019-02-27T17:47:56.817Z,16.00
2019-02-27T17:50:31.045Z,16.43
2019-02-27T17:52:55.677Z,16.17
2019-02-27T17:55:24.198Z,15.10
2019-02-27T17:57:58.030Z,14.13
2019-02-27T18:00:31.624Z,14.83
2019-02-27T18:03:00.136Z,14.70
2019-02-27T18:05:28.625Z,14.53
2019-02-27T18:07:57.132Z,13.70
2019-02-27T18:10:25.610Z,13.80
2019-02-27T18:12:54.170Z,13.70
2019-02-27T18:15:23.620Z,13.43
2019-02-27T18:17:52.185Z,12.67
2019-02-27T18:20:24.124Z,12.67
2019-02-27T18:22:51.120Z,12.97
2019-02-27T18:25:19.774Z,14.47
2019-02-27T18:27:48.404Z,16.77
2019-02-27T18:30:21.799Z,14.93
2019-02-27T18:32:51.819Z,17.57
2019-02-27T18:35:21.539Z,13.63
2019-02-27T18:37:54.366Z,11.30
2019-02-27T18:40:21.145Z,10.67
2019-02-27T18:42:55.297Z,10.57
2019-02-27T18:45:25.478Z,11.07
2019-02-27T18:47:53.952Z,10.10
2019-02-27T18:50:24.772Z,10.83
2019-02-27T18:52:52.724Z,10.43
2019-02-27T18:55:21.233Z,12.10
2019-02-27T18:57:49.773Z,10.30
2019-02-27T19:00:25.545Z,10.70
2019-02-27T19:02:59.933Z,10.60
2019-02-27T19:05:28.577Z,10.73
2019-02-27T19:07:57.186Z,10.50
2019-02-27T19:10:25.958Z,10.37
2019-02-27T19:12:54.506Z,10.40
2019-02-27T19:15:29.079Z,11.23
2019-02-27T19:17:57.626Z,11.73
2019-02-27T19:20:35.202Z,16.17
2019-02-27T19:23:03.759Z,12.90
2019-02-27T19:25:34.661Z,12.90
2019-02-27T19:28:02.578Z,13.67
2019-02-27T19:30:31.090Z,14.87
2019-02-27T19:33:01.906Z,16.20
2019-02-27T19:35:29.874Z,15.70
2019-02-27T19:37:58.356Z,14.90
2019-02-27T19:40:29.822Z,16.33
2019-02-27T19:43:04.839Z,16.40
2019-02-27T19:45:35.753Z,18.87
2019-02-27T19:48:04.399Z,18.67
2019-02-27T19:50:32.962Z,18.87
2019-02-27T19:53:05.205Z,19.20
2019-02-27T19:55:32.812Z,19.23
2019-02-27T19:58:01.591Z,18.40
2019-02-27T20:00:34.910Z,18.30
2019-02-27T20:03:02.464Z,18.67
2019-02-27T20:05:31.226Z,19.17
2019-02-27T20:08:02.221Z,18.27
2019-02-27T20:10:33.133Z,18.57
2019-02-27T20:13:01.284Z,18.33
2019-02-27T20:15:29.968Z,17.07
2019-02-27T20:17:58.417Z,17.47
2019-02-27T20:20:27.278Z,18.47
2019-02-27T20:22:57.547Z,17.10
2019-02-27T20:25:28.771Z,18.20
2019-02-27T20:27:58.721Z,17.33
2019-02-27T20:30:27.571Z,17.80
2019-02-27T20:32:56.213Z,17.10
2019-02-27T20:35:24.810Z,17.77
2019-02-27T20:37:53.360Z,17.40
2019-02-27T20:40:22.164Z,18.07
2019-02-27T20:42:54.710Z,17.37
2019-02-27T20:45:26.605Z,18.70
2019-02-27T20:47:59.962Z,17.73
2019-02-27T20:50:35.456Z,17.90
2019-02-27T20:53:04.464Z,18.37
2019-02-27T20:55:33.028Z,18.63
2019-02-27T20:58:01.577Z,18.40
2019-02-27T21:00:30.163Z,18.87
2019-02-27T21:03:00.685Z,18.70
2019-02-27T21:05:29.089Z,19.50
2019-02-27T21:08:01.221Z,19.07
2019-02-27T21:10:29.880Z,19.23
2019-02-27T21:13:00.002Z,18.50
2019-02-27T21:15:29.282Z,19.20
2019-02-27T21:17:58.923Z,19.70
2019-02-27T21:20:27.424Z,18.37
2019-02-27T21:22:55.970Z,19.03
2019-02-27T21:25:24.548Z,18.60
2019-02-27T21:27:53.102Z,18.87
2019-02-27T21:30:25.457Z,18.93
2019-02-27T21:32:53.914Z,18.97
2019-02-27T21:35:22.491Z,18.93
2019-02-27T21:37:51.164Z,18.53
2019-02-27T21:40:19.957Z,17.40
2019-02-27T21:42:50.963Z,17.60
2019-02-27T21:45:21.773Z,18.27
2019-02-27T21:47:51.902Z,17.43
2019-02-27T21:50:22.963Z,18.87
2019-02-27T21:52:54.512Z,17.53
2019-02-27T21:55:21.858Z,17.43
2019-02-27T21:57:50.429Z,17.53
2019-02-27T22:00:22.459Z,18.20
2019-02-27T22:02:51.276Z,17.00
2019-02-27T22:05:19.877Z,16.27
2019-02-27T22:07:48.682Z,16.60
2019-02-27T22:10:20.454Z,15.83
2019-02-27T22:12:49.269Z,15.50
2019-02-27T22:15:30.387Z,15.17
2019-02-27T22:17:58.929Z,16.93
2019-02-27T22:20:27.604Z,16.87
2019-02-27T22:22:56.097Z,16.83
2019-02-27T22:25:30.282Z,17.83
2019-02-27T22:27:54.939Z,17.27
2019-02-27T22:30:23.956Z,16.73
2019-02-27T22:32:52.415Z,16.07
2019-02-27T22:35:21.161Z,15.83
2019-02-27T22:37:52.497Z,15.67
2019-02-27T22:40:22.038Z,15.20
2019-02-27T22:42:50.588Z,14.37
2019-02-27T22:45:20.232Z,14.03
2019-02-27T22:47:49.750Z,12.80
2019-02-27T22:50:19.385Z,13.53
2019-02-27T22:52:47.946Z,13.47
2019-02-27T22:55:16.503Z,13.70
2019-02-27T22:57:45.348Z,13.37
2019-02-27T23:00:39.134Z,12.13
2019-02-27T23:03:07.778Z,11.20
2019-02-27T23:05:38.170Z,12.83
2019-02-27T23:08:06.482Z,11.87
2019-02-27T23:10:35.115Z,12.13
2019-02-27T23:13:03.666Z,11.60
2019-02-27T23:15:32.169Z,11.60
2019-02-27T23:18:02.592Z,11.33
2019-02-27T23:20:30.941Z,11.00
2019-02-27T23:23:02.450Z,10.43
2019-02-27T23:25:29.642Z,10.40
2019-02-27T23:28:01.050Z,11.03
2019-02-27T23:30:28.340Z,11.07
2019-02-27T23:32:59.360Z,10.47
2019-02-27T23:35:27.071Z,9.70
2019-02-27T23:37:55.578Z,10.00
2019-02-27T23:40:24.055Z,10.40
2019-02-27T23:42:52.550Z,10.20
2019-02-27T23:45:21.022Z,10.30
2019-02-27T23:47:49.515Z,9.73
2019-02-27T23:50:17.982Z,10.13
2019-02-27T23:52:46.473Z,9.57
2019-02-27T23:55:14.944Z,9.20
2019-02-27T23:57:43.441Z,9.37
